Terminal Aerodrome Forecast
Issued by NWS

Home | Current Version | Previous Version | Text Only | Print | Product List | Glossary On
Versions: 1 2 3 4 5 6 7 8 9 10 11 12 13 14 15 16 17 18 19 20 21 22 23 24 25 26 27 28 29 30
325
FTAK31 PANC 232328
TAFAAQ
TAF
PAAQ 232328Z 2400/2424 04010KT P6SM VCSH BKN040 BKN050
     FM240300 07008KT P6SM -SN BKN020
     FM240600 36005KT P6SM OVC025
     FM241200 06006KT P6SM SCT025 OVC050=

USA.gov is the U.S. government's official web portal to all federal, state and local government web resources and services.